Airfield :
LOGIN :

Register | Disclaimer

   EN    FR    IT 

 










Legend :    VFR   Marginal VFR   IFR   Intensive IFR   Very Intensive IFR
Visi :
Ceiling :
>= 8 km
>= 3000ft
5 to 8 km
1000 to 3000 ft
1500m to 5 km
500 to 1000 ft
800 to 1500m
200 to 500 ft
< 800m
< 200 ft
Symbols :   Thunderstorms  Fog  Heavy snow  Heavy precipitations  Wind > 20 kt
SIGMETs :     Misc.  Thunderstorms  Icing  Turbulence  Mountain Waves  Volcanic Ashes







- Airport Elevation : 909 ft
- IATA code : KSF


EDVK - Kassel Calden

CURRENT METAR :
  • 191820Z 26013KT 4500 RA FEW022 BKN032 OVC044 13/13 Q1019

EXPIRED METARs :
  • 191750Z 23005KT 9999 VCSH SCT037CB BKN051 17/11 Q1018
  • 191720Z 22007KT 9999 SCT036 17/10 Q1018
  • 191650Z 22009KT 9999 SCT044 BKN086 18/10 Q1018
  • 191620Z 20007KT 160V230 9999 SCT040 BKN076 18/11 Q1018
  • 191550Z 19009KT 9999 SCT035 BKN072 18/11 Q1018

TAF TAF EDVK
Valid from the 19 at 12:00 until the 19 at 21:00 UTC


191100Z 1912/1921 21011KT 9999 FEW035
TEMPO 1916/1920 SHRA BKN025CB
BECMG 1917/1920 25005KT
No reported NOTAMs for that airfield.



MET'MAP, your aeronautical weather chart ! - Copyright ORBIFLY December 2007 - Disclaimer

ORBIFLY MET'MAP TEAM :

Programming & Development : Alexandra Zaïnal
Concept & Development : Baudouin d'Aumeries
Co-Development & Prog : Marc-Olivier Méhu
Technical & hardware support : Manuel Goepfert

Contact : metmap@orbifly.com




SOURCES & CREDITS :

   NOAA